Belmore, Ohio
Current Conditions -  °F | °C
As of 1:53 PM on Monday 22 Dec 2014 (Local Time) from KFDY Reporting Station
Broken Clouds Broken Clouds  
Wind Chill:   Ceiling: 9500
Heat Index:   Visibility: 8mi
Dew Point:   Wind: 9mph
Humidity: 73%   Direction: 130°SE
Pressure: 29.92"   Gusts: NA
Location:  41.15°N, 83.94°W
Report Text: KFDY 221853Z AUTO 13008KT 8SM BKN095 04/00 A2992 RMK AO2 SLP135 T00440000
Loading
Personal Weather Stations






























Interactive Weather Map New forecast layout! Learn more

10-Day Weather Forecast

Advertisements
Track Severe Weather on mobile